Ellenboro, West Virginia
Current Conditions -  °F | °C
As of 10:59 AM on Thursday 27 Nov 2014 (Local Time) from KPKB Reporting Station
Overcast Overcast  
Wind Chill: 27°   Ceiling: 2300
Heat Index: 35°   Visibility: 9mi
Dew Point: 27°   Wind: 10mph
Humidity: 72%   Direction: 310°NW
Pressure: 30.18"   Gusts: NA
Location:  39.26°N, 81.06°W
Report Text: KPKB 271559Z 31009KT 9SM BKN023 OVC032 02/M03 A3018 RMK AO2 T00171028
Loading
Personal Weather Stations






























Interactive Weather Map New forecast layout! Learn more

10-Day Weather Forecast

Advertisements
Track Severe Weather on mobile